createdAt,value
2023-08-08T00:00:15.373Z,13.60
2023-08-08T00:02:44.377Z,13.50
2023-08-08T00:05:13.257Z,13.60
2023-08-08T00:07:42.116Z,13.50
2023-08-08T00:10:13.672Z,13.50
2023-08-08T00:12:42.266Z,13.50
2023-08-08T00:15:11.472Z,13.50
2023-08-08T00:17:40.133Z,13.50
2023-08-08T00:20:10.150Z,13.50
2023-08-08T00:22:39.342Z,13.40
2023-08-08T00:25:08.376Z,13.40
2023-08-08T00:27:43.275Z,13.40
2023-08-08T00:30:13.410Z,13.40
2023-08-08T00:32:42.453Z,13.40
2023-08-08T00:35:12.337Z,13.30
2023-08-08T00:37:41.299Z,13.30
2023-08-08T00:40:10.910Z,13.30
2023-08-08T00:42:41.421Z,13.30
2023-08-08T00:45:11.685Z,13.20
2023-08-08T00:47:40.238Z,13.20
2023-08-08T00:50:09.584Z,13.20
2023-08-08T00:52:40.374Z,13.10
2023-08-08T00:55:10.453Z,13.10
2023-08-08T00:57:41.131Z,13.10
2023-08-08T01:00:21.026Z,13.10
2023-08-08T01:02:50.937Z,13.00
2023-08-08T01:05:19.680Z,13.00
2023-08-08T01:07:54.894Z,13.00
2023-08-08T01:10:27.942Z,12.90
2023-08-08T01:13:02.432Z,12.90
2023-08-08T01:15:37.125Z,12.90
2023-08-08T01:18:08.451Z,12.90
2023-08-08T01:20:38.413Z,12.90
2023-08-08T01:23:18.919Z,12.90
2023-08-08T01:25:49.180Z,12.80
2023-08-08T01:28:18.715Z,12.80
2023-08-08T01:30:46.260Z,12.80
2023-08-08T01:33:15.745Z,12.80
2023-08-08T01:35:48.874Z,12.80
2023-08-08T01:38:25.886Z,12.80
2023-08-08T01:40:59.287Z,12.80
2023-08-08T01:43:28.058Z,12.80
2023-08-08T01:45:57.893Z,12.80
2023-08-08T01:48:26.825Z,12.80
2023-08-08T01:50:55.409Z,12.70
2023-08-08T01:53:24.389Z,12.70
2023-08-08T01:55:54.309Z,12.70
2023-08-08T01:58:24.563Z,12.70
2023-08-08T02:00:53.248Z,12.70
2023-08-08T02:03:22.320Z,12.70
2023-08-08T02:05:51.190Z,12.70
2023-08-08T02:08:20.358Z,12.70
2023-08-08T02:10:49.152Z,12.70
2023-08-08T02:13:17.559Z,12.70
2023-08-08T02:15:48.124Z,12.70
2023-08-08T02:18:16.917Z,12.70
2023-08-08T02:20:46.341Z,12.70
2023-08-08T02:23:17.438Z,12.70
2023-08-08T02:25:46.253Z,12.70
2023-08-08T02:28:14.884Z,12.70
2023-08-08T02:30:43.512Z,12.70
2023-08-08T02:33:14.482Z,12.70
2023-08-08T02:35:43.811Z,12.70
2023-08-08T02:38:12.488Z,12.70
2023-08-08T02:40:41.952Z,12.70
2023-08-08T02:43:12.245Z,12.70
2023-08-08T02:45:41.204Z,12.70
2023-08-08T02:48:10.099Z,12.70
2023-08-08T02:50:41.181Z,12.70
2023-08-08T02:53:10.226Z,12.70
2023-08-08T02:55:39.389Z,12.70
2023-08-08T02:58:08.019Z,12.70
2023-08-08T03:00:36.845Z,12.70
2023-08-08T03:03:05.879Z,12.70
2023-08-08T03:05:34.930Z,12.70
2023-08-08T03:08:06.026Z,12.70
2023-08-08T03:10:34.887Z,12.70
2023-08-08T03:13:03.657Z,12.70
2023-08-08T03:15:32.421Z,12.70
2023-08-08T03:18:01.438Z,12.70
2023-08-08T03:20:30.288Z,12.70
2023-08-08T03:22:59.015Z,12.60
2023-08-08T03:25:29.708Z,12.60
2023-08-08T03:27:58.454Z,12.60
2023-08-08T03:30:27.348Z,12.60
2023-08-08T03:32:56.529Z,12.60
2023-08-08T03:35:26.344Z,12.70
2023-08-08T03:37:54.913Z,12.70
2023-08-08T03:40:23.515Z,12.70
2023-08-08T03:42:53.910Z,12.80
2023-08-08T03:45:22.851Z,12.80
2023-08-08T03:47:51.630Z,12.80
2023-08-08T03:50:20.395Z,12.80
2023-08-08T03:52:49.311Z,12.80
2023-08-08T03:55:18.099Z,12.80
2023-08-08T03:57:46.760Z,12.70
2023-08-08T04:00:18.240Z,12.70
2023-08-08T04:02:47.437Z,12.70
2023-08-08T04:05:16.100Z,12.70
2023-08-08T04:07:45.233Z,12.70
2023-08-08T04:10:14.763Z,12.70
2023-08-08T04:12:43.564Z,12.70
2023-08-08T04:15:12.590Z,12.70
2023-08-08T04:17:43.021Z,12.60
2023-08-08T04:20:12.962Z,12.60
2023-08-08T04:22:41.984Z,12.60
2023-08-08T04:25:11.649Z,12.60
2023-08-08T04:27:40.812Z,12.60
2023-08-08T04:30:10.889Z,12.60
2023-08-08T04:32:39.634Z,12.60
2023-08-08T04:35:10.002Z,12.60
2023-08-08T04:37:39.130Z,12.60
2023-08-08T04:40:11.056Z,12.60
2023-08-08T04:42:41.210Z,12.50
2023-08-08T04:45:12.153Z,12.60
2023-08-08T04:47:40.951Z,12.60
2023-08-08T04:50:12.688Z,12.60
2023-08-08T04:52:41.008Z,12.60
2023-08-08T04:55:10.593Z,12.60
2023-08-08T04:57:39.166Z,12.60
2023-08-08T05:00:09.927Z,12.60
2023-08-08T05:02:40.855Z,12.60
2023-08-08T05:05:11.704Z,12.70
2023-08-08T05:07:40.555Z,12.70
2023-08-08T05:10:09.717Z,12.70
2023-08-08T05:12:38.487Z,12.70
2023-08-08T05:15:09.119Z,12.70
2023-08-08T05:17:37.890Z,12.80
2023-08-08T05:20:07.854Z,12.80
2023-08-08T05:22:38.665Z,12.80
2023-08-08T05:25:08.904Z,12.90
2023-08-08T05:27:37.511Z,12.90
2023-08-08T05:30:07.879Z,12.90
2023-08-08T05:32:36.543Z,13.00
2023-08-08T05:35:06.511Z,13.10
2023-08-08T05:37:35.624Z,13.10
2023-08-08T05:40:07.711Z,13.10
2023-08-08T05:42:37.614Z,13.20
2023-08-08T05:45:07.365Z,13.30
2023-08-08T05:47:36.797Z,13.40
2023-08-08T05:50:05.974Z,13.40
2023-08-08T05:52:34.778Z,13.50
2023-08-08T05:55:06.461Z,13.60
2023-08-08T05:57:35.135Z,13.70
2023-08-08T06:00:04.333Z,13.70
2023-08-08T06:02:33.440Z,13.80
2023-08-08T06:05:02.502Z,13.90
2023-08-08T06:07:30.824Z,14.00
2023-08-08T06:09:59.617Z,14.10
2023-08-08T06:12:30.227Z,14.20
2023-08-08T06:14:59.088Z,14.30
2023-08-08T06:17:28.090Z,14.40
2023-08-08T06:19:58.366Z,14.50
2023-08-08T06:22:27.185Z,14.50
2023-08-08T06:24:56.269Z,14.70
2023-08-08T06:27:25.219Z,14.80
2023-08-08T06:29:55.613Z,15.00
2023-08-08T06:32:24.691Z,15.20
2023-08-08T06:34:53.335Z,15.30
2023-08-08T06:37:22.286Z,15.30
2023-08-08T06:39:50.873Z,15.30
2023-08-08T06:42:19.788Z,15.40
2023-08-08T06:44:48.733Z,15.30
2023-08-08T06:47:19.932Z,15.30
2023-08-08T06:49:48.513Z,15.30
2023-08-08T06:52:18.679Z,15.40
2023-08-08T06:54:49.435Z,15.40
2023-08-08T06:57:18.024Z,15.40
2023-08-08T06:59:53.992Z,15.50
2023-08-08T07:02:24.862Z,15.50
2023-08-08T07:04:53.770Z,15.60
2023-08-08T07:07:22.414Z,15.70
2023-08-08T07:09:51.787Z,15.70
2023-08-08T07:12:20.434Z,15.70
2023-08-08T07:14:49.367Z,15.70
2023-08-08T07:17:18.860Z,15.80
2023-08-08T07:19:48.976Z,15.80
2023-08-08T07:22:17.444Z,15.90
2023-08-08T07:24:48.249Z,16.00
2023-08-08T07:27:17.147Z,16.10
2023-08-08T07:29:45.926Z,16.20
2023-08-08T07:32:14.924Z,16.30
2023-08-08T07:34:43.934Z,16.30
2023-08-08T07:37:14.284Z,16.40
2023-08-08T07:39:42.990Z,16.50
2023-08-08T07:42:11.922Z,16.70
2023-08-08T07:44:40.946Z,16.60
2023-08-08T07:47:11.927Z,16.70
2023-08-08T07:49:42.320Z,16.80
2023-08-08T07:52:11.229Z,17.00
2023-08-08T07:54:41.331Z,17.20
2023-08-08T07:57:12.139Z,17.20
2023-08-08T07:59:41.381Z,17.20
2023-08-08T08:02:10.301Z,17.40
2023-08-08T08:04:39.004Z,17.40
2023-08-08T08:07:10.305Z,17.30
2023-08-08T08:09:38.847Z,17.40
2023-08-08T08:12:10.721Z,17.50
2023-08-08T08:14:42.374Z,17.60
2023-08-08T08:17:11.478Z,17.70
2023-08-08T08:19:40.106Z,17.70
2023-08-08T08:22:08.919Z,17.80
2023-08-08T08:24:37.842Z,17.80
2023-08-08T08:27:06.917Z,17.80
2023-08-08T08:29:37.887Z,17.80
2023-08-08T08:32:07.912Z,17.80
2023-08-08T08:34:36.796Z,17.90
2023-08-08T08:37:05.648Z,17.90
2023-08-08T08:39:36.163Z,17.90
2023-08-08T08:42:06.684Z,17.90
2023-08-08T08:44:37.431Z,17.90
2023-08-08T08:47:12.158Z,18.00
2023-08-08T08:49:42.673Z,18.00
2023-08-08T08:52:11.761Z,18.10
2023-08-08T08:54:41.279Z,18.10
2023-08-08T08:57:11.066Z,18.20
2023-08-08T08:59:41.201Z,18.30
2023-08-08T09:02:11.573Z,18.30
2023-08-08T09:04:41.006Z,18.40
2023-08-08T09:07:12.009Z,18.40
2023-08-08T09:09:41.076Z,18.50
2023-08-08T09:12:10.689Z,18.50
2023-08-08T09:14:44.864Z,18.50
2023-08-08T09:17:15.242Z,18.50
2023-08-08T09:19:46.533Z,18.50
2023-08-08T09:22:16.298Z,18.50
2023-08-08T09:24:47.549Z,18.50
2023-08-08T09:27:17.245Z,18.60
2023-08-08T09:29:47.682Z,18.80
2023-08-08T09:32:19.170Z,18.90
2023-08-08T09:34:49.689Z,18.90
2023-08-08T09:37:20.043Z,19.00
2023-08-08T09:39:49.225Z,19.10
2023-08-08T09:42:18.857Z,19.20
2023-08-08T09:44:49.957Z,19.10
2023-08-08T09:47:20.948Z,19.10
2023-08-08T09:49:51.888Z,19.10
2023-08-08T09:52:22.064Z,19.10
2023-08-08T09:54:52.081Z,19.20
2023-08-08T09:57:21.555Z,19.20
2023-08-08T09:59:53.720Z,19.40
2023-08-08T10:02:22.397Z,19.60
2023-08-08T10:04:51.380Z,19.70
2023-08-08T10:07:20.541Z,19.70
2023-08-08T10:09:49.780Z,19.70
2023-08-08T10:12:19.321Z,19.90
2023-08-08T10:14:48.300Z,20.00
2023-08-08T10:17:19.083Z,19.90
2023-08-08T10:19:58.473Z,19.90
2023-08-08T10:22:28.198Z,19.80
2023-08-08T10:24:58.215Z,19.70
2023-08-08T10:27:35.650Z,19.60
2023-08-08T10:30:10.830Z,19.40
2023-08-08T10:32:47.926Z,19.10
2023-08-08T10:35:17.026Z,18.90
2023-08-08T10:37:56.105Z,18.90
2023-08-08T10:40:24.880Z,18.90
2023-08-08T10:42:55.322Z,18.80
2023-08-08T10:45:32.049Z,18.70
2023-08-08T10:48:11.262Z,18.70
2023-08-08T10:50:45.166Z,18.60
2023-08-08T10:53:14.573Z,18.50
2023-08-08T10:55:43.201Z,18.50
2023-08-08T10:58:14.447Z,18.60
2023-08-08T11:00:43.761Z,18.50
2023-08-08T11:03:14.405Z,18.50
2023-08-08T11:05:46.003Z,18.50
2023-08-08T11:08:15.015Z,18.50
2023-08-08T11:10:44.409Z,18.50
2023-08-08T11:13:13.778Z,18.40
2023-08-08T11:15:42.482Z,18.30
2023-08-08T11:18:20.671Z,18.20
2023-08-08T11:20:50.511Z,18.10
2023-08-08T11:23:22.251Z,18.00
2023-08-08T11:26:17.547Z,17.90
2023-08-08T11:28:40.754Z,17.90
2023-08-08T11:31:11.180Z,17.90
2023-08-08T11:33:41.706Z,18.00
2023-08-08T11:36:10.707Z,18.20
2023-08-08T11:38:40.290Z,18.60
2023-08-08T11:41:09.985Z,19.00
2023-08-08T11:43:39.047Z,19.60
2023-08-08T11:46:12.271Z,20.10
2023-08-08T11:48:42.844Z,20.00
2023-08-08T11:51:13.288Z,20.00
2023-08-08T11:53:51.910Z,19.90
2023-08-08T11:56:22.234Z,19.80
2023-08-08T11:58:53.209Z,19.80
2023-08-08T12:01:23.587Z,19.70
2023-08-08T12:03:54.337Z,19.70
2023-08-08T12:06:23.693Z,19.70
2023-08-08T12:08:52.635Z,19.60
2023-08-08T12:11:25.326Z,19.60
2023-08-08T12:14:00.880Z,19.60
2023-08-08T12:16:33.691Z,19.40
2023-08-08T12:19:05.688Z,19.40
2023-08-08T12:21:34.528Z,19.50
2023-08-08T12:24:03.736Z,19.50
2023-08-08T12:26:34.606Z,19.50
2023-08-08T12:29:03.907Z,19.50
2023-08-08T12:31:32.714Z,19.50
2023-08-08T12:34:06.170Z,19.40
2023-08-08T12:36:35.686Z,19.50
2023-08-08T12:39:04.795Z,19.80
2023-08-08T12:41:33.495Z,20.00
2023-08-08T12:44:04.144Z,20.10
2023-08-08T12:46:42.238Z,20.10
2023-08-08T12:49:12.365Z,19.90
2023-08-08T12:51:41.337Z,19.80
2023-08-08T12:54:10.562Z,19.70
2023-08-08T12:56:39.248Z,19.80
2023-08-08T12:59:08.197Z,19.90
2023-08-08T13:01:37.129Z,20.30
2023-08-08T13:04:18.715Z,20.40
2023-08-08T13:06:50.887Z,20.60
2023-08-08T13:09:19.476Z,20.70
2023-08-08T13:11:48.193Z,20.60
2023-08-08T13:14:17.409Z,20.50
2023-08-08T13:16:47.483Z,20.50
2023-08-08T13:19:17.829Z,20.50
2023-08-08T13:21:46.997Z,20.60
2023-08-08T13:24:17.041Z,20.60
2023-08-08T13:26:45.762Z,20.80
2023-08-08T13:29:15.493Z,20.90
2023-08-08T13:31:44.492Z,21.30
2023-08-08T13:34:13.406Z,21.40
2023-08-08T13:36:42.379Z,21.40
2023-08-08T13:39:12.079Z,21.40
2023-08-08T13:41:43.713Z,21.30
2023-08-08T13:44:12.265Z,21.20
2023-08-08T13:46:41.022Z,21.20
2023-08-08T13:49:10.042Z,21.10
2023-08-08T13:51:38.651Z,21.10
2023-08-08T13:54:08.283Z,20.90
2023-08-08T13:56:37.233Z,21.00
2023-08-08T13:59:08.225Z,20.90
2023-08-08T14:01:37.300Z,20.70
2023-08-08T14:04:07.233Z,20.60
2023-08-08T14:06:36.504Z,20.80
2023-08-08T14:09:05.750Z,20.70
2023-08-08T14:11:34.229Z,20.70
2023-08-08T14:14:02.825Z,21.00
2023-08-08T14:16:36.273Z,21.20
2023-08-08T14:19:05.439Z,21.30
2023-08-08T14:21:34.416Z,21.30
2023-08-08T14:24:05.170Z,21.30
2023-08-08T14:26:34.235Z,21.40
2023-08-08T14:29:03.424Z,21.60
2023-08-08T14:31:38.399Z,21.90
2023-08-08T14:34:17.249Z,21.90
2023-08-08T14:36:46.237Z,21.90
2023-08-08T14:39:15.259Z,21.90
2023-08-08T14:41:43.898Z,21.70
2023-08-08T14:44:12.837Z,21.60
2023-08-08T14:46:43.587Z,21.30
2023-08-08T14:49:12.165Z,21.10
2023-08-08T14:51:40.855Z,20.90
2023-08-08T14:54:09.738Z,20.80
2023-08-08T14:56:38.464Z,20.80
2023-08-08T14:59:07.364Z,20.80
2023-08-08T15:01:36.195Z,20.90
2023-08-08T15:04:07.201Z,21.10
2023-08-08T15:06:36.351Z,21.10
2023-08-08T15:09:05.544Z,20.90
2023-08-08T15:11:34.647Z,20.90
2023-08-08T15:14:04.509Z,20.80
2023-08-08T15:16:35.826Z,20.60
2023-08-08T15:19:08.333Z,20.40
2023-08-08T15:21:37.146Z,20.20
2023-08-08T15:24:06.433Z,20.20
2023-08-08T15:26:35.277Z,20.30
2023-08-08T15:29:04.287Z,20.30
2023-08-08T15:31:34.332Z,20.30
2023-08-08T15:34:03.498Z,20.20
2023-08-08T15:36:34.089Z,20.10
2023-08-08T15:39:04.365Z,20.00
2023-08-08T15:41:33.287Z,20.00
2023-08-08T15:44:02.199Z,19.90
2023-08-08T15:46:31.185Z,19.80
2023-08-08T15:48:59.757Z,19.70
2023-08-08T15:51:29.532Z,19.60
2023-08-08T15:54:02.647Z,19.50
2023-08-08T15:56:31.489Z,19.50
2023-08-08T15:59:01.166Z,19.50
2023-08-08T16:01:30.914Z,19.40
2023-08-08T16:04:09.779Z,19.40
2023-08-08T16:06:39.191Z,19.40
2023-08-08T16:09:12.031Z,19.30
2023-08-08T16:11:40.978Z,19.30
2023-08-08T16:14:10.144Z,19.40
2023-08-08T16:16:39.149Z,19.30
2023-08-08T16:19:07.628Z,19.40
2023-08-08T16:21:36.580Z,19.40
2023-08-08T16:24:06.028Z,19.30
2023-08-08T16:26:36.323Z,19.30
2023-08-08T16:29:05.343Z,19.20
2023-08-08T16:31:35.457Z,19.10
2023-08-08T16:34:04.934Z,19.00
2023-08-08T16:36:34.203Z,18.90
2023-08-08T16:39:16.768Z,18.80
2023-08-08T16:41:48.540Z,18.70
2023-08-08T16:44:17.493Z,18.60
2023-08-08T16:46:48.356Z,18.50
2023-08-08T16:49:17.058Z,18.40
2023-08-08T16:51:48.145Z,18.40
2023-08-08T16:54:17.263Z,18.20
2023-08-08T16:56:46.178Z,18.10
2023-08-08T16:59:16.169Z,17.90
2023-08-08T17:01:45.442Z,17.80
2023-08-08T17:04:16.283Z,17.70
2023-08-08T17:06:45.462Z,17.80
2023-08-08T17:09:15.155Z,17.80
2023-08-08T17:11:44.209Z,17.70
2023-08-08T17:14:13.158Z,17.70
2023-08-08T17:16:46.457Z,17.50
2023-08-08T17:19:15.059Z,17.40
2023-08-08T17:21:44.084Z,17.30
2023-08-08T17:24:15.054Z,17.30
2023-08-08T17:26:45.072Z,17.20
2023-08-08T17:29:13.904Z,17.20
2023-08-08T17:31:44.054Z,17.10
2023-08-08T17:34:12.884Z,17.00
2023-08-08T17:36:41.921Z,16.90
2023-08-08T17:39:10.749Z,16.90
2023-08-08T17:41:39.768Z,16.90
2023-08-08T17:44:09.812Z,16.90
2023-08-08T17:46:39.241Z,16.80
2023-08-08T17:49:09.771Z,16.70
2023-08-08T17:51:38.840Z,16.70
2023-08-08T17:54:08.803Z,16.60
2023-08-08T17:56:38.334Z,16.60
2023-08-08T17:59:07.962Z,16.60
2023-08-08T18:01:36.973Z,16.50
2023-08-08T18:04:06.088Z,16.50
2023-08-08T18:06:36.425Z,16.50
2023-08-08T18:09:05.937Z,16.40
2023-08-08T18:11:39.811Z,16.30
2023-08-08T18:14:09.454Z,16.30
2023-08-08T18:16:38.430Z,16.20
2023-08-08T18:19:07.639Z,16.20
2023-08-08T18:21:38.110Z,16.20
2023-08-08T18:24:08.638Z,16.20
2023-08-08T18:26:37.886Z,16.20
2023-08-08T18:29:07.407Z,16.20
2023-08-08T18:31:36.056Z,16.20
2023-08-08T18:34:05.471Z,16.20
2023-08-08T18:36:35.992Z,16.10
2023-08-08T18:39:07.473Z,16.20
2023-08-08T18:41:37.298Z,16.10
2023-08-08T18:44:08.079Z,16.10
2023-08-08T18:46:37.296Z,16.00
2023-08-08T18:49:06.544Z,16.10
2023-08-08T18:51:36.619Z,16.00
2023-08-08T18:54:09.684Z,16.00
2023-08-08T18:56:39.123Z,16.00
2023-08-08T18:59:07.764Z,16.00
2023-08-08T19:01:37.124Z,16.00
2023-08-08T19:04:06.381Z,16.00
2023-08-08T19:06:35.221Z,16.00
2023-08-08T19:09:09.443Z,15.80
2023-08-08T19:11:40.518Z,15.80
2023-08-08T19:14:09.401Z,15.70
2023-08-08T19:16:41.128Z,15.80
2023-08-08T19:19:09.763Z,15.70
2023-08-08T19:21:38.492Z,15.70
2023-08-08T19:24:07.988Z,15.70
2023-08-08T19:26:36.473Z,15.70
2023-08-08T19:29:06.975Z,15.60
2023-08-08T19:31:35.654Z,15.70
2023-08-08T19:34:07.113Z,15.70
2023-08-08T19:36:36.838Z,15.60
2023-08-08T19:39:06.445Z,15.60
2023-08-08T19:41:35.018Z,15.60
2023-08-08T19:44:05.976Z,15.50
2023-08-08T19:46:36.556Z,15.50
2023-08-08T19:49:05.963Z,15.40
2023-08-08T19:51:34.307Z,15.30
2023-08-08T19:54:03.394Z,15.40
2023-08-08T19:56:32.354Z,15.30
2023-08-08T19:59:01.143Z,15.30
2023-08-08T20:01:31.421Z,15.40
2023-08-08T20:04:03.064Z,15.30
2023-08-08T20:06:31.800Z,15.30
2023-08-08T20:09:01.269Z,15.30
2023-08-08T20:11:30.515Z,15.30
2023-08-08T20:13:59.374Z,15.30
2023-08-08T20:16:29.220Z,15.20
2023-08-08T20:18:58.482Z,15.20
2023-08-08T20:21:28.534Z,15.20
2023-08-08T20:23:57.441Z,15.20
2023-08-08T20:26:26.290Z,15.20
2023-08-08T20:28:55.283Z,15.10
2023-08-08T20:31:24.634Z,15.10
2023-08-08T20:33:56.395Z,15.10
2023-08-08T20:36:25.096Z,15.10
2023-08-08T20:38:55.444Z,15.10
2023-08-08T20:41:24.293Z,15.10
2023-08-08T20:43:52.962Z,15.10
2023-08-08T20:46:21.890Z,15.10
2023-08-08T20:48:52.125Z,15.10
2023-08-08T20:51:20.709Z,15.10
2023-08-08T20:53:50.768Z,15.20
2023-08-08T20:56:22.620Z,15.10
2023-08-08T20:58:51.260Z,15.10
2023-08-08T21:01:20.097Z,15.10
2023-08-08T21:03:49.024Z,15.10
2023-08-08T21:06:17.620Z,15.10
2023-08-08T21:08:46.064Z,15.10
2023-08-08T21:11:14.733Z,15.10
2023-08-08T21:13:45.046Z,15.10
2023-08-08T21:16:13.755Z,15.10
2023-08-08T21:18:42.405Z,15.10
2023-08-08T21:21:11.093Z,15.20
2023-08-08T21:23:40.038Z,15.10
2023-08-08T21:26:08.628Z,15.20
2023-08-08T21:28:37.390Z,15.20
2023-08-08T21:31:07.556Z,15.10
2023-08-08T21:33:36.436Z,15.10
2023-08-08T21:36:05.613Z,15.10
2023-08-08T21:38:36.660Z,15.10
2023-08-08T21:41:05.587Z,15.10
2023-08-08T21:43:34.194Z,15.10
2023-08-08T21:46:03.346Z,15.10
2023-08-08T21:48:34.062Z,15.10
2023-08-08T21:51:02.597Z,15.10
2023-08-08T21:53:31.654Z,15.20
2023-08-08T21:56:01.301Z,15.10
2023-08-08T21:58:30.369Z,15.20
2023-08-08T22:01:00.019Z,15.20
2023-08-08T22:03:28.695Z,15.20
2023-08-08T22:05:58.830Z,15.20
2023-08-08T22:08:27.648Z,15.10
2023-08-08T22:10:56.403Z,15.10
2023-08-08T22:13:25.429Z,15.10
2023-08-08T22:15:55.042Z,15.10
2023-08-08T22:18:25.544Z,15.20
2023-08-08T22:20:55.050Z,15.20
2023-08-08T22:23:24.979Z,15.20
2023-08-08T22:25:54.365Z,15.20
2023-08-08T22:28:23.156Z,15.20
2023-08-08T22:30:53.416Z,15.20
2023-08-08T22:33:22.492Z,15.30
2023-08-08T22:35:51.097Z,15.30
2023-08-08T22:38:19.868Z,15.20
2023-08-08T22:40:49.869Z,15.20
2023-08-08T22:43:18.576Z,15.30
2023-08-08T22:45:47.272Z,15.30
2023-08-08T22:48:16.141Z,15.30
2023-08-08T22:50:45.954Z,15.30
2023-08-08T22:53:15.582Z,15.30
2023-08-08T22:55:44.443Z,15.30
2023-08-08T22:58:15.645Z,15.30
2023-08-08T23:00:44.305Z,15.30
2023-08-08T23:03:13.692Z,15.30
2023-08-08T23:05:42.790Z,15.30
2023-08-08T23:08:11.860Z,15.30
2023-08-08T23:10:40.473Z,15.30
2023-08-08T23:13:09.357Z,15.30
2023-08-08T23:15:39.666Z,15.30
2023-08-08T23:18:08.762Z,15.30
2023-08-08T23:20:39.117Z,15.30
2023-08-08T23:23:09.345Z,15.30
2023-08-08T23:25:38.023Z,15.30
2023-08-08T23:28:07.360Z,15.40
2023-08-08T23:30:36.018Z,15.40
2023-08-08T23:33:07.169Z,15.30
2023-08-08T23:35:35.767Z,15.40
2023-08-08T23:38:05.128Z,15.40
2023-08-08T23:40:35.334Z,15.40
2023-08-08T23:43:03.941Z,15.40
2023-08-08T23:45:33.374Z,15.40
2023-08-08T23:48:05.495Z,15.40
2023-08-08T23:50:36.076Z,15.40
2023-08-08T23:53:08.218Z,15.40
2023-08-08T23:55:37.369Z,15.40
2023-08-08T23:58:06.136Z,15.40
